createdAt,value
2023-12-09T00:01:00.696Z,14.17
2023-12-09T00:03:34.942Z,14.25
2023-12-09T00:06:09.213Z,14.28
2023-12-09T00:08:44.207Z,14.27
2023-12-09T00:11:20.192Z,14.19
2023-12-09T00:13:56.283Z,14.22
2023-12-09T00:16:30.149Z,14.18
2023-12-09T00:19:03.805Z,14.11
2023-12-09T00:21:40.424Z,14.23
2023-12-09T00:24:15.479Z,14.33
2023-12-09T00:26:49.322Z,14.09
2023-12-09T00:29:23.053Z,14.22
2023-12-09T00:31:59.571Z,14.24
2023-12-09T00:34:33.107Z,14.28
2023-12-09T00:37:06.804Z,14.19
2023-12-09T00:39:44.182Z,14.15
2023-12-09T00:42:17.749Z,14.25
2023-12-09T00:44:52.184Z,14.23
2023-12-09T00:47:26.133Z,14.14
2023-12-09T00:50:01.333Z,14.23
2023-12-09T00:52:35.288Z,14.21
2023-12-09T00:55:12.619Z,14.25
2023-12-09T00:57:46.454Z,14.40
2023-12-09T01:00:21.293Z,14.42
2023-12-09T01:02:58.041Z,14.28
2023-12-09T01:05:31.891Z,14.35
2023-12-09T01:08:05.457Z,14.28
2023-12-09T01:10:41.022Z,14.33
2023-12-09T01:13:14.998Z,14.39
2023-12-09T01:15:50.898Z,14.37
2023-12-09T01:18:24.894Z,14.29
2023-12-09T01:21:01.116Z,14.34
2023-12-09T01:23:34.700Z,14.14
2023-12-09T01:26:13.951Z,14.13
2023-12-09T01:28:53.084Z,14.07
2023-12-09T01:31:26.515Z,14.11
2023-12-09T01:34:00.663Z,14.02
2023-12-09T01:36:34.414Z,14.10
2023-12-09T01:39:10.036Z,14.14
2023-12-09T01:41:45.815Z,14.19
2023-12-09T01:44:22.692Z,14.14
2023-12-09T01:46:57.825Z,13.97
2023-12-09T01:49:31.767Z,13.96
2023-12-09T01:52:14.676Z,13.87
2023-12-09T01:54:48.876Z,13.79
2023-12-09T01:57:24.604Z,13.70
2023-12-09T01:59:58.581Z,13.57
2023-12-09T02:02:32.766Z,13.47
2023-12-09T02:05:07.366Z,13.67
2023-12-09T02:07:41.138Z,13.52
2023-12-09T02:10:15.574Z,13.55
2023-12-09T02:13:00.462Z,13.37
2023-12-09T02:15:38.348Z,13.40
2023-12-09T02:18:12.989Z,13.49
2023-12-09T02:20:46.838Z,13.47
2023-12-09T02:23:22.153Z,13.54
2023-12-09T02:26:05.557Z,13.28
2023-12-09T02:28:45.905Z,13.44
2023-12-09T02:31:25.614Z,13.41
2023-12-09T02:34:01.503Z,13.34
2023-12-09T02:36:37.024Z,13.33
2023-12-09T02:39:15.757Z,13.12
2023-12-09T02:41:50.597Z,13.29
2023-12-09T02:44:25.188Z,13.17
2023-12-09T02:46:59.041Z,12.91
2023-12-09T02:49:32.666Z,13.15
2023-12-09T02:52:06.848Z,13.16
2023-12-09T02:54:41.985Z,13.24
2023-12-09T02:57:15.104Z,13.27
2023-12-09T02:59:49.166Z,13.29
2023-12-09T03:02:22.761Z,13.24
2023-12-09T03:04:56.565Z,13.28
2023-12-09T03:07:30.319Z,13.20
2023-12-09T03:10:05.867Z,13.17
2023-12-09T03:12:39.546Z,13.00
2023-12-09T03:15:13.114Z,12.96
2023-12-09T03:17:47.065Z,12.94
2023-12-09T03:20:22.254Z,12.91
2023-12-09T03:22:56.276Z,12.84
2023-12-09T03:25:31.369Z,12.97
2023-12-09T03:28:06.230Z,13.10
2023-12-09T03:30:39.963Z,13.00
2023-12-09T03:33:13.485Z,13.13
2023-12-09T03:35:47.512Z,13.01
2023-12-09T03:38:21.183Z,12.87
2023-12-09T03:40:56.776Z,12.85
2023-12-09T03:43:30.392Z,13.02
2023-12-09T03:46:03.959Z,13.04
2023-12-09T03:48:37.565Z,13.22
2023-12-09T03:51:11.233Z,13.17
2023-12-09T03:53:45.704Z,13.09
2023-12-09T03:56:22.026Z,13.20
2023-12-09T03:58:55.712Z,13.20
2023-12-09T04:01:29.154Z,13.10
2023-12-09T04:04:02.646Z,13.20
2023-12-09T04:06:35.996Z,13.13
2023-12-09T04:09:10.487Z,13.21
2023-12-09T04:11:45.731Z,13.14
2023-12-09T04:14:19.473Z,13.23
2023-12-09T04:16:52.975Z,13.24
2023-12-09T04:19:26.619Z,13.22
2023-12-09T04:22:00.570Z,13.17
2023-12-09T04:24:34.124Z,13.14
2023-12-09T04:27:09.583Z,13.10
2023-12-09T04:29:43.905Z,13.10
2023-12-09T04:32:17.267Z,13.20
2023-12-09T04:34:51.195Z,13.14
2023-12-09T04:37:25.718Z,13.16
2023-12-09T04:40:00.094Z,12.98
2023-12-09T04:42:35.591Z,13.03
2023-12-09T04:45:10.536Z,13.05
2023-12-09T04:47:44.563Z,13.04
2023-12-09T04:50:18.838Z,13.08
2023-12-09T04:52:52.381Z,13.11
2023-12-09T04:55:26.197Z,13.06
2023-12-09T04:58:01.154Z,13.09
2023-12-09T05:00:34.840Z,12.97
2023-12-09T05:03:08.891Z,12.76
2023-12-09T05:05:42.342Z,12.90
2023-12-09T05:08:16.101Z,12.62
2023-12-09T05:10:52.288Z,12.62
2023-12-09T05:13:27.972Z,12.76
2023-12-09T05:16:01.473Z,12.78
2023-12-09T05:18:36.371Z,12.65
2023-12-09T05:21:10.749Z,12.67
2023-12-09T05:23:44.447Z,12.73
2023-12-09T05:26:24.994Z,12.67
2023-12-09T05:29:00.703Z,12.40
2023-12-09T05:31:34.849Z,12.49
2023-12-09T05:34:08.936Z,12.51
2023-12-09T05:36:44.093Z,12.50
2023-12-09T05:39:18.040Z,12.87
2023-12-09T05:41:51.416Z,12.86
2023-12-09T05:44:26.846Z,12.83
2023-12-09T05:47:00.481Z,12.89
2023-12-09T05:49:34.173Z,12.75
2023-12-09T05:52:08.494Z,12.63
2023-12-09T05:54:43.098Z,12.51
2023-12-09T05:57:16.773Z,12.67
2023-12-09T05:59:51.736Z,12.57
2023-12-09T06:02:26.215Z,12.52
2023-12-09T06:04:59.983Z,12.58
2023-12-09T06:07:33.629Z,12.71
2023-12-09T06:10:08.871Z,12.61
2023-12-09T06:12:43.171Z,12.71
2023-12-09T06:15:19.391Z,12.90
2023-12-09T06:17:53.079Z,12.80
2023-12-09T06:20:26.728Z,12.76
2023-12-09T06:23:00.180Z,12.65
2023-12-09T06:25:33.538Z,12.71
2023-12-09T06:28:07.604Z,12.67
2023-12-09T06:30:42.318Z,12.80
2023-12-09T06:33:15.822Z,12.81
2023-12-09T06:35:49.164Z,12.85
2023-12-09T06:38:22.348Z,12.87
2023-12-09T06:40:55.561Z,12.89
2023-12-09T06:43:29.087Z,12.90
2023-12-09T06:46:03.888Z,12.89
2023-12-09T06:48:39.063Z,12.81
2023-12-09T06:51:16.998Z,12.88
2023-12-09T06:53:50.313Z,12.76
2023-12-09T06:56:24.104Z,12.86
2023-12-09T06:58:57.514Z,12.86
2023-12-09T07:01:32.824Z,13.06
2023-12-09T07:04:10.577Z,13.20
2023-12-09T07:06:44.416Z,12.98
2023-12-09T07:09:18.508Z,12.89
2023-12-09T07:12:01.619Z,12.76
2023-12-09T07:14:36.789Z,13.04
2023-12-09T07:17:14.350Z,12.89
2023-12-09T07:19:49.075Z,12.92
2023-12-09T07:22:25.132Z,12.63
2023-12-09T07:25:00.250Z,13.09
2023-12-09T07:27:34.218Z,13.06
2023-12-09T07:30:09.322Z,12.80
2023-12-09T07:32:44.808Z,12.98
2023-12-09T07:35:19.359Z,12.88
2023-12-09T07:37:53.083Z,12.86
2023-12-09T07:40:26.767Z,12.93
2023-12-09T07:43:05.592Z,13.05
2023-12-09T07:45:39.329Z,12.97
2023-12-09T07:48:14.576Z,13.26
2023-12-09T07:50:48.365Z,13.22
2023-12-09T07:53:38.317Z,13.21
2023-12-09T07:56:35.337Z,13.20
2023-12-09T07:59:10.597Z,13.27
2023-12-09T08:01:58.820Z,13.17
2023-12-09T08:04:39.077Z,12.84
2023-12-09T08:07:12.775Z,12.94
2023-12-09T08:09:55.338Z,12.89
2023-12-09T08:12:29.387Z,13.03
2023-12-09T08:15:03.271Z,12.94
2023-12-09T08:17:36.862Z,12.66
2023-12-09T08:20:36.990Z,12.75
2023-12-09T08:23:10.441Z,12.67
2023-12-09T08:25:45.047Z,12.59
2023-12-09T08:28:18.516Z,12.89
2023-12-09T08:30:52.263Z,13.02
2023-12-09T08:33:26.025Z,13.00
2023-12-09T08:36:01.479Z,13.19
2023-12-09T08:38:34.841Z,13.14
2023-12-09T08:41:08.615Z,13.22
2023-12-09T08:43:41.978Z,13.24
2023-12-09T08:46:15.625Z,13.14
2023-12-09T08:48:49.937Z,13.26
2023-12-09T08:51:25.126Z,13.05
2023-12-09T08:53:58.993Z,13.05
2023-12-09T08:56:32.962Z,13.11
2023-12-09T08:59:09.179Z,13.07
2023-12-09T09:01:42.594Z,13.12
2023-12-09T09:04:15.907Z,13.11
2023-12-09T09:06:50.838Z,13.09
2023-12-09T09:09:28.659Z,12.68
2023-12-09T09:12:02.602Z,12.85
2023-12-09T09:14:37.523Z,13.06
2023-12-09T09:17:11.756Z,13.33
2023-12-09T09:19:45.736Z,13.47
2023-12-09T09:22:20.506Z,13.44
2023-12-09T09:24:53.833Z,13.32
2023-12-09T09:27:28.008Z,13.28
2023-12-09T09:30:01.654Z,13.30
2023-12-09T09:32:35.095Z,13.32
2023-12-09T09:35:09.718Z,13.25
2023-12-09T09:37:46.972Z,13.33
2023-12-09T09:40:22.035Z,13.35
2023-12-09T09:42:59.740Z,13.24
2023-12-09T09:45:33.462Z,13.45
2023-12-09T09:48:07.960Z,13.43
2023-12-09T09:50:43.335Z,13.41
2023-12-09T09:53:22.760Z,13.41
2023-12-09T09:55:57.706Z,13.42
2023-12-09T09:58:33.076Z,13.64
2023-12-09T10:01:07.245Z,13.69
2023-12-09T10:03:41.429Z,13.51
2023-12-09T10:06:15.863Z,13.75
2023-12-09T10:08:51.244Z,13.76
2023-12-09T10:11:24.650Z,13.67
2023-12-09T10:13:58.308Z,13.67
2023-12-09T10:16:34.403Z,13.65
2023-12-09T10:19:11.273Z,13.72
2023-12-09T10:21:44.917Z,13.87
2023-12-09T10:24:20.211Z,13.96
2023-12-09T10:26:53.613Z,14.16
2023-12-09T10:29:27.056Z,14.13
2023-12-09T10:32:02.505Z,14.01
2023-12-09T10:34:36.763Z,13.99
2023-12-09T10:37:10.638Z,13.92
2023-12-09T10:39:47.196Z,14.14
2023-12-09T10:42:24.430Z,13.93
2023-12-09T10:45:09.344Z,13.90
2023-12-09T10:47:45.098Z,14.09
2023-12-09T10:50:18.984Z,14.09
2023-12-09T10:52:52.321Z,14.15
2023-12-09T10:55:29.099Z,14.16
2023-12-09T10:58:03.983Z,14.19
2023-12-09T11:00:38.838Z,13.92
2023-12-09T11:03:12.597Z,13.77
2023-12-09T11:05:52.632Z,14.14
2023-12-09T11:08:29.384Z,14.12
2023-12-09T11:11:06.632Z,14.01
2023-12-09T11:13:45.676Z,14.14
2023-12-09T11:16:22.581Z,14.00
2023-12-09T11:18:57.254Z,14.01
2023-12-09T11:21:31.251Z,14.02
2023-12-09T11:24:04.594Z,14.12
2023-12-09T11:26:39.341Z,14.09
2023-12-09T11:29:13.997Z,13.97
2023-12-09T11:31:51.517Z,14.15
2023-12-09T11:34:26.063Z,14.05
2023-12-09T11:37:01.145Z,13.68
2023-12-09T11:39:34.604Z,13.59
2023-12-09T11:42:10.407Z,14.10
2023-12-09T11:44:44.822Z,14.06
2023-12-09T11:47:20.495Z,14.22
2023-12-09T11:49:55.662Z,14.27
2023-12-09T11:52:29.197Z,13.96
2023-12-09T11:55:03.330Z,14.09
2023-12-09T11:57:38.270Z,14.27
2023-12-09T12:00:12.818Z,14.36
2023-12-09T12:02:46.460Z,14.21
2023-12-09T12:05:19.939Z,13.98
2023-12-09T12:07:53.289Z,14.04
2023-12-09T12:10:26.614Z,14.11
2023-12-09T12:13:03.528Z,14.02
2023-12-09T12:15:36.805Z,14.08
2023-12-09T12:18:10.274Z,13.71
2023-12-09T12:20:44.230Z,13.87
2023-12-09T12:23:26.407Z,13.90
2023-12-09T12:26:06.509Z,13.97
2023-12-09T12:28:41.455Z,13.86
2023-12-09T12:31:15.027Z,14.17
2023-12-09T12:33:48.457Z,14.27
2023-12-09T12:36:22.519Z,14.15
2023-12-09T12:38:57.348Z,14.17
2023-12-09T12:41:31.493Z,14.12
2023-12-09T12:44:07.590Z,14.22
2023-12-09T12:46:41.444Z,14.22
2023-12-09T12:49:15.348Z,13.77
2023-12-09T12:51:51.216Z,13.83
2023-12-09T12:54:24.776Z,13.83
2023-12-09T12:57:00.424Z,13.73
2023-12-09T12:59:36.730Z,13.58
2023-12-09T13:02:10.936Z,13.66
2023-12-09T13:04:46.340Z,13.98
2023-12-09T13:07:19.813Z,14.08
2023-12-09T13:09:53.176Z,14.04
2023-12-09T13:12:27.543Z,14.12
2023-12-09T13:15:02.839Z,14.14
2023-12-09T13:17:36.810Z,14.20
2023-12-09T13:20:11.324Z,14.10
2023-12-09T13:22:47.234Z,14.00
2023-12-09T13:25:20.719Z,14.02
2023-12-09T13:27:54.498Z,13.98
2023-12-09T13:30:30.026Z,13.98
2023-12-09T13:33:04.068Z,14.08
2023-12-09T13:35:37.515Z,14.05
2023-12-09T13:38:11.036Z,13.98
2023-12-09T13:40:47.411Z,14.15
2023-12-09T13:43:20.741Z,14.06
2023-12-09T13:45:55.561Z,14.22
2023-12-09T13:48:29.036Z,14.12
2023-12-09T13:51:02.458Z,14.14
2023-12-09T13:53:35.768Z,14.01
2023-12-09T13:56:09.824Z,14.14
2023-12-09T13:58:43.024Z,14.06
2023-12-09T14:01:18.009Z,14.05
2023-12-09T14:03:51.501Z,14.15
2023-12-09T14:06:25.869Z,14.06
2023-12-09T14:08:59.197Z,14.04
2023-12-09T14:11:32.382Z,13.97
2023-12-09T14:14:07.738Z,14.06
2023-12-09T14:16:43.966Z,14.22
2023-12-09T14:19:18.649Z,14.18
2023-12-09T14:21:52.153Z,14.33
2023-12-09T14:24:25.829Z,14.34
2023-12-09T14:27:00.730Z,14.15
2023-12-09T14:29:34.562Z,14.34
2023-12-09T14:32:09.762Z,14.27
2023-12-09T14:34:43.214Z,14.38
2023-12-09T14:37:17.083Z,14.23
2023-12-09T14:39:50.854Z,14.35
2023-12-09T14:42:24.674Z,14.30
2023-12-09T14:44:58.379Z,14.41
2023-12-09T14:47:33.717Z,14.23
2023-12-09T14:50:08.292Z,14.23
2023-12-09T14:52:42.899Z,14.38
2023-12-09T14:55:16.496Z,14.21
2023-12-09T14:57:50.429Z,14.34
2023-12-09T15:00:25.071Z,14.12
2023-12-09T15:03:00.700Z,14.13
2023-12-09T15:05:34.247Z,14.24
2023-12-09T15:08:08.765Z,14.21
2023-12-09T15:10:42.645Z,14.31
2023-12-09T15:13:16.152Z,14.04
2023-12-09T15:15:49.973Z,14.20
2023-12-09T15:18:25.119Z,14.35
2023-12-09T15:20:58.920Z,14.43
2023-12-09T15:23:32.761Z,14.48
2023-12-09T15:26:06.839Z,14.35
2023-12-09T15:28:40.713Z,14.42
2023-12-09T15:31:14.208Z,14.47
2023-12-09T15:33:49.953Z,14.48
2023-12-09T15:36:24.671Z,14.44
2023-12-09T15:38:58.325Z,14.47
2023-12-09T15:41:34.690Z,14.61
2023-12-09T15:44:08.240Z,14.68
2023-12-09T15:46:42.939Z,14.52
2023-12-09T15:49:17.976Z,14.62
2023-12-09T15:51:53.607Z,14.67
2023-12-09T15:54:27.029Z,14.65
2023-12-09T15:57:03.265Z,14.59
2023-12-09T15:59:37.058Z,14.62
2023-12-09T16:02:10.806Z,14.51
2023-12-09T16:04:45.625Z,14.52
2023-12-09T16:07:18.791Z,14.55
2023-12-09T16:09:55.179Z,14.58
2023-12-09T16:12:33.448Z,14.61
2023-12-09T16:15:08.202Z,14.70
2023-12-09T16:17:42.686Z,14.67
2023-12-09T16:20:18.219Z,14.64
2023-12-09T16:22:51.733Z,14.63
2023-12-09T16:25:25.122Z,14.76
2023-12-09T16:27:58.696Z,14.85
2023-12-09T16:30:32.078Z,14.75
2023-12-09T16:33:11.843Z,14.70
2023-12-09T16:35:49.557Z,14.69
2023-12-09T16:38:22.724Z,14.63
2023-12-09T16:40:55.804Z,14.70
2023-12-09T16:43:29.141Z,14.81
2023-12-09T16:46:02.429Z,14.87
2023-12-09T16:48:35.695Z,14.98
2023-12-09T16:51:10.583Z,14.89
2023-12-09T16:53:43.669Z,14.94
2023-12-09T16:56:17.683Z,14.86
2023-12-09T16:58:50.859Z,14.61
2023-12-09T17:01:24.093Z,14.58
2023-12-09T17:03:57.309Z,14.58
2023-12-09T17:06:31.987Z,14.75
2023-12-09T17:09:05.702Z,14.77
2023-12-09T17:11:38.934Z,14.75
2023-12-09T17:14:12.684Z,14.68
2023-12-09T17:16:46.648Z,14.41
2023-12-09T17:19:19.981Z,14.71
2023-12-09T17:21:55.057Z,14.73
2023-12-09T17:24:28.318Z,14.68
2023-12-09T17:27:01.555Z,14.68
2023-12-09T17:29:34.717Z,14.74
2023-12-09T17:32:08.524Z,14.82
2023-12-09T17:34:41.677Z,14.84
2023-12-09T17:37:16.214Z,14.82
2023-12-09T17:39:49.588Z,14.92
2023-12-09T17:42:22.866Z,14.90
2023-12-09T17:44:56.650Z,14.80
2023-12-09T17:47:32.794Z,14.86
2023-12-09T17:50:07.198Z,14.81
2023-12-09T17:52:42.149Z,14.64
2023-12-09T17:55:15.540Z,14.71
2023-12-09T17:57:49.145Z,14.56
2023-12-09T18:00:22.352Z,14.50
2023-12-09T18:02:56.186Z,14.57
2023-12-09T18:05:29.723Z,14.59
2023-12-09T18:08:09.168Z,14.63
2023-12-09T18:10:42.906Z,14.66
2023-12-09T18:13:16.328Z,14.69
2023-12-09T18:15:50.731Z,14.74
2023-12-09T18:18:24.425Z,14.99
2023-12-09T18:20:57.784Z,15.21
2023-12-09T18:23:32.477Z,14.78
2023-12-09T18:26:06.113Z,14.69
2023-12-09T18:28:39.877Z,14.68
2023-12-09T18:31:13.648Z,14.53
2023-12-09T18:33:47.022Z,14.61
2023-12-09T18:36:21.484Z,14.41
2023-12-09T18:38:56.372Z,14.82
2023-12-09T18:41:29.700Z,14.58
2023-12-09T18:44:04.273Z,14.87
2023-12-09T18:46:37.703Z,14.80
2023-12-09T18:49:12.445Z,14.70
2023-12-09T18:51:45.874Z,14.63
2023-12-09T18:54:20.522Z,14.57
2023-12-09T18:56:54.011Z,14.42
2023-12-09T18:59:27.670Z,14.41
2023-12-09T19:02:09.150Z,14.47
2023-12-09T19:05:51.141Z,14.54
2023-12-09T19:08:47.556Z,14.36
2023-12-09T19:11:22.174Z,14.62
2023-12-09T19:13:55.728Z,14.66
2023-12-09T19:16:29.173Z,14.57
2023-12-09T19:19:03.100Z,14.56
2023-12-09T19:21:38.698Z,14.43
2023-12-09T19:24:12.189Z,14.57
2023-12-09T19:26:47.463Z,14.59
2023-12-09T19:29:20.678Z,14.79
2023-12-09T19:31:53.930Z,14.59
2023-12-09T19:34:31.225Z,14.47
2023-12-09T19:37:05.192Z,14.44
2023-12-09T19:39:39.669Z,14.57
2023-12-09T19:42:14.790Z,14.66
2023-12-09T19:44:48.182Z,14.69
2023-12-09T19:47:21.635Z,14.73
2023-12-09T19:49:54.979Z,14.71
2023-12-09T19:52:29.726Z,14.62
2023-12-09T19:55:03.175Z,14.67
2023-12-09T19:57:38.282Z,14.58
2023-12-09T20:00:12.668Z,14.45
2023-12-09T20:02:47.866Z,14.67
2023-12-09T20:05:23.228Z,14.58
2023-12-09T20:07:57.124Z,14.54
2023-12-09T20:10:30.842Z,14.44
2023-12-09T20:13:07.644Z,14.36
2023-12-09T20:15:46.553Z,14.50
2023-12-09T20:21:44.496Z,14.38
2023-12-09T20:24:27.485Z,14.15
2023-12-09T20:27:03.836Z,14.25
2023-12-09T20:29:38.879Z,14.43
2023-12-09T20:32:12.847Z,14.38
2023-12-09T20:34:48.529Z,14.42
2023-12-09T20:37:21.983Z,14.33
2023-12-09T20:39:58.364Z,14.47
2023-12-09T20:42:31.944Z,14.43
2023-12-09T20:45:08.414Z,14.55
2023-12-09T20:47:42.508Z,14.54
2023-12-09T20:50:16.586Z,14.51
2023-12-09T20:52:49.887Z,14.71
2023-12-09T20:55:23.207Z,14.64
2023-12-09T20:57:56.946Z,14.53
2023-12-09T21:00:31.660Z,14.61
2023-12-09T21:03:06.163Z,14.49
2023-12-09T21:05:39.535Z,14.38
2023-12-09T21:08:12.904Z,14.14
2023-12-09T21:10:46.567Z,14.34
2023-12-09T21:13:19.981Z,14.35
2023-12-09T21:15:54.578Z,14.43
2023-12-09T21:18:28.473Z,14.32
2023-12-09T21:21:01.613Z,14.17
2023-12-09T21:23:34.819Z,14.22
2023-12-09T21:26:08.341Z,14.38
2023-12-09T21:28:42.014Z,14.42
2023-12-09T21:31:16.970Z,14.43
2023-12-09T21:33:50.968Z,14.39
2023-12-09T21:36:24.412Z,14.45
2023-12-09T21:38:58.206Z,14.43
2023-12-09T21:41:31.999Z,14.40
2023-12-09T21:44:06.254Z,14.28
2023-12-09T21:46:42.767Z,14.27
2023-12-09T21:49:16.188Z,14.24
2023-12-09T21:51:49.655Z,14.30
2023-12-09T21:54:23.304Z,14.26
2023-12-09T21:56:56.844Z,14.33
2023-12-09T21:59:30.526Z,14.19
2023-12-09T22:02:05.871Z,14.24
2023-12-09T22:04:39.180Z,14.24
2023-12-09T22:07:12.391Z,14.14
2023-12-09T22:09:45.732Z,14.19
2023-12-09T22:12:19.046Z,14.08
2023-12-09T22:14:52.651Z,14.19
2023-12-09T22:17:27.312Z,14.08
2023-12-09T22:20:01.038Z,14.03
2023-12-09T22:22:41.164Z,13.83
2023-12-09T22:25:17.736Z,14.12
2023-12-09T22:27:51.413Z,14.02
2023-12-09T22:30:24.898Z,14.11
2023-12-09T22:32:59.886Z,13.91
2023-12-09T22:35:34.235Z,14.12
2023-12-09T22:38:07.352Z,13.71
2023-12-09T22:40:40.842Z,13.98
2023-12-09T22:43:14.020Z,14.13
2023-12-09T22:45:47.261Z,14.28
2023-12-09T22:48:22.128Z,14.21
2023-12-09T22:50:55.843Z,14.08
2023-12-09T22:53:29.205Z,14.17
2023-12-09T22:56:12.737Z,14.20
2023-12-09T22:58:47.965Z,14.30
2023-12-09T23:01:23.777Z,14.03
2023-12-09T23:03:58.607Z,14.08
2023-12-09T23:06:31.894Z,14.15
2023-12-09T23:09:05.830Z,14.18
2023-12-09T23:11:38.981Z,14.28
2023-12-09T23:14:13.396Z,14.26
2023-12-09T23:16:47.164Z,14.32
2023-12-09T23:19:21.952Z,14.07
2023-12-09T23:21:55.863Z,14.20
2023-12-09T23:24:29.388Z,14.24
2023-12-09T23:27:02.943Z,14.31
2023-12-09T23:29:36.213Z,14.32
2023-12-09T23:32:12.390Z,14.30
2023-12-09T23:34:47.699Z,14.33
2023-12-09T23:37:21.403Z,14.44
2023-12-09T23:39:54.797Z,14.16
2023-12-09T23:42:28.766Z,14.40
2023-12-09T23:45:02.099Z,14.32
2023-12-09T23:47:35.465Z,14.29
2023-12-09T23:50:11.669Z,14.29
2023-12-09T23:52:46.822Z,14.12
2023-12-09T23:55:20.114Z,14.41
2023-12-09T23:57:53.608Z,14.47
